Time;durP1;ratioP1;P1;durP2;ratioP2;P2;SDS_P1;SDS_P2;PMS_P1;PMS_P2;Temp;Humidity;BMP_temperature;BMP_pressure;BME280_temperature;BME280_humidity;BME280_pressure;Samples;Min_cycle;Max_cycle;Signal;HPM_P1;HPM_P2
2022/04/30 00:01:06;;;;;;;13.35;9.30;;;5.80;99.90;;;;;;2228817;64;20171;-73
2022/04/30 00:03:47;;;;;;;13.73;9.18;;;5.80;99.90;;;;;;2231199;64;20167;-74
2022/04/30 00:06:26;;;;;;;17.13;9.40;;;5.70;99.90;;;;;;2226682;64;20183;-73
2022/04/30 00:09:05;;;;;;;15.75;9.38;;;5.70;99.90;;;;;;2230963;64;20286;-73
2022/04/30 00:11:46;;;;;;;15.05;8.05;;;5.80;99.90;;;;;;2225970;64;20230;-73
2022/04/30 00:14:26;;;;;;;19.02;9.38;;;6.20;99.90;;;;;;2228683;64;20192;-74
2022/04/30 00:17:04;;;;;;;11.98;7.72;;;5.80;99.90;;;;;;2228854;64;20236;-73
2022/04/30 00:19:40;;;;;;;13.60;8.52;;;5.80;99.90;;;;;;2230523;64;20278;-73
2022/04/30 00:22:17;;;;;;;14.13;7.90;;;5.80;99.90;;;;;;2230699;64;20162;-74
2022/04/30 00:24:55;;;;;;;11.10;8.13;;;5.80;99.90;;;;;;2229819;64;20155;-73
2022/04/30 00:27:34;;;;;;;15.63;8.40;;;5.80;99.90;;;;;;2228426;64;20178;-73
2022/04/30 00:30:12;;;;;;;15.10;8.40;;;5.80;99.90;;;;;;2230842;64;20580;-73
2022/04/30 00:32:48;;;;;;;12.40;8.77;;;5.80;99.90;;;;;;2230058;64;20195;-73
2022/04/30 00:35:26;;;;;;;10.65;7.10;;;5.80;99.90;;;;;;2223717;64;20323;-73
2022/04/30 00:38:09;;;;;;;10.70;7.53;;;5.80;99.90;;;;;;2226271;64;20310;-73
2022/04/30 00:40:55;;;;;;;10.88;7.75;;;5.80;99.90;;;;;;2235721;64;20276;-73
2022/04/30 00:43:42;;;;;;;10.85;7.90;;;5.80;99.90;;;;;;2234747;64;20316;-73
2022/04/30 00:46:21;;;;;;;9.30;6.63;;;6.00;99.90;;;;;;2231551;64;20294;-74
2022/04/30 00:49:01;;;;;;;9.02;6.97;;;5.80;99.90;;;;;;2231901;64;20323;-73
2022/04/30 00:51:41;;;;;;;11.73;7.53;;;5.80;99.90;;;;;;2230231;64;20216;-73
2022/04/30 00:54:24;;;;;;;14.70;7.78;;;5.80;99.90;;;;;;2230206;64;20188;-74
2022/04/30 00:57:03;;;;;;;8.70;6.68;;;5.80;99.90;;;;;;2230659;64;20184;-73
2022/04/30 00:59:44;;;;;;;13.52;8.00;;;5.80;99.90;;;;;;2230249;64;20196;-75
2022/04/30 01:02:47;;;;;;;11.65;6.40;;;5.80;99.90;;;;;;2230205;64;20214;-73
2022/04/30 01:05:28;;;;;;;9.85;6.70;;;5.70;99.90;;;;;;2229857;64;20175;-75
2022/04/30 01:08:06;;;;;;;14.05;7.40;;;5.70;99.90;;;;;;2229299;64;20515;-74
2022/04/30 01:10:43;;;;;;;11.13;6.88;;;5.70;99.90;;;;;;2231052;64;20166;-74
2022/04/30 01:13:20;;;;;;;14.65;7.22;;;5.70;99.90;;;;;;2230692;64;20664;-72
2022/04/30 01:15:58;;;;;;;10.65;6.88;;;5.70;99.90;;;;;;2228569;64;20188;-73
2022/04/30 01:18:36;;;;;;;9.65;6.90;;;5.80;99.90;;;;;;2222955;64;20393;-73
2022/04/30 01:21:18;;;;;;;8.38;6.93;;;5.70;99.90;;;;;;2228449;64;20387;-73
2022/04/30 01:23:58;;;;;;;9.38;6.70;;;5.80;99.90;;;;;;2229203;64;20624;-74
2022/04/30 01:26:37;;;;;;;8.27;6.10;;;5.80;99.90;;;;;;2231071;64;20239;-73
2022/04/30 01:29:18;;;;;;;9.60;6.22;;;5.70;99.90;;;;;;2231927;64;20221;-74
2022/04/30 01:37:50;;;;;;;15.65;7.32;;;5.70;99.90;;;;;;2234645;64;20182;-74
2022/04/30 01:40:29;;;;;;;8.40;6.15;;;5.70;99.90;;;;;;2235344;64;20832;-72
2022/04/30 01:43:08;;;;;;;8.63;7.03;;;5.70;99.90;;;;;;2235756;64;20316;-74
2022/04/30 01:45:48;;;;;;;10.55;6.55;;;5.70;99.90;;;;;;2232884;64;20248;-73
2022/04/30 01:48:27;;;;;;;9.85;5.82;;;5.80;99.90;;;;;;2233518;64;20207;-73
2022/04/30 01:51:07;;;;;;;9.75;6.80;;;5.70;99.90;;;;;;2233829;64;20200;-73
2022/04/30 01:53:48;;;;;;;10.88;6.68;;;5.60;99.90;;;;;;2227807;64;20166;-74
2022/04/30 01:56:29;;;;;;;12.27;7.15;;;5.60;99.90;;;;;;2230857;64;20167;-74
2022/04/30 01:59:08;;;;;;;8.43;6.72;;;5.80;99.90;;;;;;2230495;64;20182;-74
2022/04/30 02:01:46;;;;;;;9.43;6.75;;;5.60;99.90;;;;;;2230065;64;20170;-73
2022/04/30 02:04:27;;;;;;;14.38;7.32;;;5.60;99.90;;;;;;2224474;64;20328;-73
2022/04/30 02:07:04;;;;;;;10.20;6.68;;;5.60;99.90;;;;;;2229909;64;20192;-73
2022/04/30 02:09:40;;;;;;;10.65;6.10;;;5.60;99.90;;;;;;2224922;64;20580;-73
2022/04/30 02:12:17;;;;;;;12.32;6.55;;;5.60;99.90;;;;;;2230277;64;20193;-72
2022/04/30 02:14:55;;;;;;;9.25;6.85;;;5.60;99.90;;;;;;2228014;64;20252;-74
2022/04/30 02:17:36;;;;;;;10.48;7.07;;;5.60;99.90;;;;;;2232470;64;20248;-73
2022/04/30 02:20:24;;;;;;;13.30;6.82;;;5.60;99.90;;;;;;2232124;64;20347;-73
2022/04/30 02:23:05;;;;;;;9.05;6.32;;;5.60;99.90;;;;;;2232703;64;20650;-73
2022/04/30 02:25:42;;;;;;;10.80;6.78;;;5.60;99.90;;;;;;2230833;64;20860;-73
2022/04/30 02:28:21;;;;;;;10.25;6.03;;;5.60;99.90;;;;;;2235374;64;20181;-73
2022/04/30 02:30:59;;;;;;;8.00;6.53;;;5.60;99.90;;;;;;2230668;64;20163;-73
2022/04/30 02:33:39;;;;;;;9.70;7.03;;;5.60;99.90;;;;;;2229732;64;20194;-73
2022/04/30 02:36:23;;;;;;;8.30;6.78;;;5.50;99.90;;;;;;2232348;64;20170;-74
2022/04/30 02:39:01;;;;;;;9.45;6.80;;;5.60;99.90;;;;;;2230821;64;20557;-73
2022/04/30 02:41:40;;;;;;;8.82;7.07;;;5.60;99.90;;;;;;2230939;64;20653;-72
2022/04/30 02:44:18;;;;;;;14.50;6.80;;;5.50;99.90;;;;;;2229348;64;20191;-73
2022/04/30 02:46:56;;;;;;;10.85;6.85;;;5.90;99.90;;;;;;2229790;64;20171;-73
2022/04/30 02:49:38;;;;;;;10.35;7.03;;;5.60;99.90;;;;;;2232130;64;20175;-73
2022/04/30 02:52:16;;;;;;;9.25;6.72;;;5.50;99.90;;;;;;2231960;64;20308;-73
2022/04/30 02:54:56;;;;;;;10.63;6.82;;;5.50;99.90;;;;;;2231658;64;20301;-73
2022/04/30 03:00:59;;;;;;;10.52;6.20;;;5.50;99.90;;;;;;2199368;65;20170;-73
2022/04/30 03:03:37;;;;;;;11.43;6.20;;;5.60;99.90;;;;;;2196737;65;20182;-73
2022/04/30 03:06:18;;;;;;;10.15;6.82;;;5.60;99.90;;;;;;2228773;64;20660;-73
2022/04/30 03:08:59;;;;;;;7.80;6.72;;;5.60;99.90;;;;;;2229420;64;20174;-73
2022/04/30 03:11:38;;;;;;;9.80;6.47;;;5.60;99.90;;;;;;2231262;64;20676;-73
2022/04/30 03:14:16;;;;;;;8.93;6.65;;;5.60;99.90;;;;;;2227577;64;20185;-73
2022/04/30 03:22:47;;;;;;;13.68;7.03;;;5.60;99.90;;;;;;2230389;64;20665;-73
2022/04/30 03:25:26;;;;;;;7.90;6.45;;;5.60;99.90;;;;;;2230487;64;20915;-73
2022/04/30 03:28:04;;;;;;;10.07;6.93;;;5.70;99.90;;;;;;2225408;64;20258;-73
2022/04/30 03:30:43;;;;;;;10.48;7.18;;;5.60;99.90;;;;;;2228681;64;20556;-73
2022/04/30 03:33:22;;;;;;;9.80;6.95;;;5.60;99.90;;;;;;2227837;64;20469;-74
2022/04/30 03:36:00;;;;;;;10.32;6.65;;;5.60;99.90;;;;;;2230520;64;20230;-74
2022/04/30 03:38:40;;;;;;;8.90;7.38;;;5.70;99.90;;;;;;2227262;64;20183;-74
2022/04/30 03:41:17;;;;;;;10.50;7.38;;;5.60;99.90;;;;;;2230926;64;20171;-72
2022/04/30 03:43:56;;;;;;;10.38;7.38;;;5.60;99.90;;;;;;2228749;64;20258;-73
2022/04/30 03:46:36;;;;;;;9.68;7.00;;;5.60;99.90;;;;;;2229182;64;20584;-73
2022/04/30 03:49:17;;;;;;;13.10;7.35;;;6.20;99.90;;;;;;2232474;64;20179;-73
2022/04/30 03:51:56;;;;;;;10.95;7.15;;;5.60;99.90;;;;;;2230611;64;20230;-73
2022/04/30 03:54:33;;;;;;;12.95;7.85;;;5.60;99.90;;;;;;2228725;64;20222;-73
2022/04/30 03:57:10;;;;;;;9.52;6.85;;;5.60;99.90;;;;;;2229897;64;20271;-72
2022/04/30 03:59:49;;;;;;;10.85;6.70;;;5.60;99.90;;;;;;2228163;64;20171;-74
2022/04/30 04:02:29;;;;;;;8.43;7.53;;;5.50;99.90;;;;;;2230197;64;20286;-73
2022/04/30 04:05:12;;;;;;;9.10;6.95;;;5.50;99.90;;;;;;2224824;64;20255;-74
2022/04/30 04:07:52;;;;;;;8.73;7.07;;;5.50;99.90;;;;;;2230800;64;20344;-73
2022/04/30 04:10:30;;;;;;;9.27;7.07;;;5.50;99.90;;;;;;2230344;64;20171;-73
2022/04/30 04:19:04;;;;;;;7.80;6.75;;;5.50;99.90;;;;;;2233367;64;20214;-74
2022/04/30 04:21:43;;;;;;;10.75;8.02;;;5.60;99.90;;;;;;2232342;64;20296;-74
2022/04/30 04:27:17;;;;;;;8.55;6.80;;;5.60;99.90;;;;;;2230353;64;20166;-72
2022/04/30 04:29:58;;;;;;;10.85;6.68;;;5.70;99.90;;;;;;2225686;64;20583;-74
2022/04/30 04:32:37;;;;;;;10.43;7.30;;;5.60;99.90;;;;;;2231069;64;20271;-73
2022/04/30 04:35:15;;;;;;;9.90;8.07;;;5.70;99.90;;;;;;2223584;64;20217;-73
2022/04/30 04:37:55;;;;;;;10.13;7.40;;;5.80;99.90;;;;;;2222961;64;20579;-73
2022/04/30 04:40:32;;;;;;;8.60;7.07;;;5.90;99.90;;;;;;2222603;64;20196;-73
2022/04/30 04:43:10;;;;;;;12.95;7.30;;;5.90;99.90;;;;;;2223020;64;20293;-73
2022/04/30 04:45:51;;;;;;;11.70;7.05;;;6.00;99.90;;;;;;2230742;64;20259;-73
2022/04/30 04:48:31;;;;;;;10.90;7.80;;;6.00;99.90;;;;;;2230096;64;20216;-74
2022/04/30 04:51:08;;;;;;;11.40;6.97;;;6.10;99.90;;;;;;2230900;64;20167;-73
2022/04/30 04:53:45;;;;;;;10.05;7.45;;;6.10;99.90;;;;;;2230958;64;20182;-73
2022/04/30 04:56:23;;;;;;;8.68;7.18;;;6.10;99.90;;;;;;2231230;64;20250;-73
2022/04/30 04:59:03;;;;;;;10.88;8.10;;;6.20;99.90;;;;;;2230898;64;20186;-73
2022/04/30 05:01:40;;;;;;;12.60;7.65;;;6.20;99.90;;;;;;1998450;64;15084723;-73
2022/04/30 05:04:17;;;;;;;9.75;7.38;;;6.50;99.90;;;;;;2225515;64;20548;-73
2022/04/30 05:06:53;;;;;;;9.15;7.40;;;6.40;99.90;;;;;;2229975;64;20210;-73
2022/04/30 05:09:31;;;;;;;12.20;8.25;;;6.40;99.90;;;;;;2230972;64;20362;-74
2022/04/30 05:12:07;;;;;;;10.27;8.20;;;6.50;99.90;;;;;;2230426;64;20158;-74
2022/04/30 05:14:46;;;;;;;12.30;8.82;;;6.60;99.90;;;;;;2224741;64;20208;-73
2022/04/30 05:17:23;;;;;;;9.80;7.38;;;6.60;99.90;;;;;;2224084;64;20322;-73
2022/04/30 05:20:05;;;;;;;9.60;7.60;;;6.70;99.90;;;;;;2224546;64;20267;-74
2022/04/30 05:22:43;;;;;;;8.75;7.85;;;6.80;99.90;;;;;;2225822;64;20416;-73
2022/04/30 05:25:22;;;;;;;9.52;7.72;;;6.80;99.90;;;;;;2224414;64;20207;-74
2022/04/30 05:28:00;;;;;;;12.55;7.47;;;6.90;99.90;;;;;;2225448;64;20174;-73
2022/04/30 05:30:39;;;;;;;8.77;7.20;;;7.00;99.90;;;;;;2230307;64;20305;-73
2022/04/30 05:33:16;;;;;;;8.85;7.00;;;7.00;99.90;;;;;;2229883;64;20211;-73
2022/04/30 05:35:58;;;;;;;10.02;6.95;;;7.10;99.90;;;;;;2224536;64;20200;-73
2022/04/30 05:38:35;;;;;;;8.70;7.57;;;7.20;99.90;;;;;;2222625;64;20223;-72
2022/04/30 05:41:14;;;;;;;9.23;7.07;;;7.30;99.90;;;;;;2222674;64;20225;-73
2022/04/30 05:43:51;;;;;;;9.23;6.72;;;7.40;99.90;;;;;;2226444;64;20186;-73
2022/04/30 05:46:31;;;;;;;9.80;7.75;;;7.40;99.90;;;;;;2229715;64;20178;-74
2022/04/30 05:49:10;;;;;;;11.13;7.15;;;7.50;99.90;;;;;;2222917;64;20193;-73
2022/04/30 05:51:52;;;;;;;10.27;7.43;;;7.60;99.90;;;;;;2223473;64;20220;-74
2022/04/30 05:54:29;;;;;;;11.98;6.75;;;7.70;99.90;;;;;;2230121;64;20202;-72
2022/04/30 05:57:08;;;;;;;10.10;6.50;;;7.70;99.90;;;;;;2231675;64;20605;-73
2022/04/30 05:59:45;;;;;;;11.40;6.25;;;8.30;99.90;;;;;;2231701;64;20336;-73
2022/04/30 06:02:21;;;;;;;9.23;6.32;;;7.80;99.90;;;;;;2231752;64;20386;-73
2022/04/30 06:05:01;;;;;;;7.70;5.80;;;7.80;99.90;;;;;;2231870;64;20251;-73
2022/04/30 06:07:40;;;;;;;11.57;6.57;;;7.90;99.90;;;;;;2229454;64;20343;-73
2022/04/30 06:10:19;;;;;;;9.15;7.15;;;8.00;99.90;;;;;;2224331;64;20201;-72
2022/04/30 06:12:57;;;;;;;10.60;7.15;;;8.10;99.90;;;;;;2226696;64;20163;-72
2022/04/30 06:15:37;;;;;;;7.80;6.82;;;8.20;99.90;;;;;;2223868;64;20167;-72
2022/04/30 06:18:16;;;;;;;9.98;7.05;;;8.30;99.90;;;;;;2223988;64;20280;-74
2022/04/30 06:20:53;;;;;;;7.88;5.95;;;8.50;99.90;;;;;;2223846;64;20877;-73
2022/04/30 06:23:33;;;;;;;9.10;6.18;;;8.60;99.90;;;;;;2228179;64;20193;-73
2022/04/30 06:26:08;;;;;;;;;;;8.80;99.90;;;;;;2232029;64;20572;-73
2022/04/30 06:28:44;;;;;;;8.48;6.63;;;9.00;99.90;;;;;;2232022;64;20076;-73
2022/04/30 06:31:22;;;;;;;9.20;6.30;;;9.10;99.90;;;;;;2231584;64;20216;-73
2022/04/30 06:34:03;;;;;;;7.43;6.20;;;9.20;99.90;;;;;;2226948;64;20581;-73
2022/04/30 06:36:42;;;;;;;10.90;7.13;;;9.40;99.90;;;;;;2223980;64;20197;-73
2022/04/30 06:39:22;;;;;;;9.95;6.55;;;9.50;99.90;;;;;;2223323;64;20626;-74
2022/04/30 06:42:00;;;;;;;10.60;6.30;;;9.60;99.90;;;;;;2223742;64;20679;-73
2022/04/30 06:44:39;;;;;;;9.25;7.05;;;9.70;99.90;;;;;;2230063;64;20278;-72
2022/04/30 06:47:18;;;;;;;7.90;6.82;;;9.60;99.90;;;;;;2224248;64;20649;-74
2022/04/30 06:49:56;;;;;;;9.65;7.07;;;9.60;99.90;;;;;;2223699;64;20660;-74
2022/04/30 06:57:06;;;;;;;9.30;6.85;;;9.70;99.90;;;;;;2224918;64;20223;-73
2022/04/30 06:58:40;;;;;;;9.73;7.43;;;9.90;99.90;;;;;;2233781;64;20163;-72
2022/04/30 07:04:14;;;;;;;9.38;6.72;;;9.90;99.90;;;;;;2227912;64;20587;-72
2022/04/30 07:06:54;;;;;;;10.25;6.45;;;9.90;99.90;;;;;;2231072;64;20279;-73
2022/04/30 07:09:34;;;;;;;13.43;7.07;;;9.90;99.90;;;;;;2231781;64;20170;-73
2022/04/30 07:12:14;;;;;;;10.93;7.75;;;9.90;99.90;;;;;;2232293;64;20200;-74
2022/04/30 07:14:53;;;;;;;9.02;6.57;;;9.90;99.90;;;;;;2233229;64;20581;-73
2022/04/30 07:17:34;;;;;;;10.32;6.88;;;9.90;99.90;;;;;;2230445;64;20228;-73
2022/04/30 07:20:13;;;;;;;7.15;5.97;;;10.00;99.90;;;;;;2229126;64;20184;-73
2022/04/30 07:22:50;;;;;;;9.30;6.72;;;10.00;99.90;;;;;;2230483;64;20206;-74
2022/04/30 07:25:27;;;;;;;14.65;7.47;;;10.00;99.90;;;;;;2229590;64;20158;-73
2022/04/30 07:28:05;;;;;;;9.05;6.65;;;10.10;99.90;;;;;;2230143;64;20656;-73
2022/04/30 07:30:47;;;;;;;9.32;7.75;;;10.20;99.90;;;;;;2231939;64;20327;-74
2022/04/30 07:33:27;;;;;;;9.82;6.90;;;10.30;99.90;;;;;;2232499;64;20162;-73
2022/04/30 07:36:07;;;;;;;10.30;6.82;;;10.60;99.90;;;;;;2230106;64;20224;-73
2022/04/30 07:38:44;;;;;;;9.13;6.18;;;10.60;99.90;;;;;;2230583;64;20221;-74
2022/04/30 07:41:24;;;;;;;10.10;6.78;;;10.70;99.90;;;;;;2232651;64;20259;-73
2022/04/30 07:44:04;;;;;;;10.27;6.47;;;10.90;99.90;;;;;;2232524;64;20724;-73
2022/04/30 07:46:42;;;;;;;7.35;6.30;;;11.00;99.90;;;;;;2233725;64;20274;-74
2022/04/30 07:49:18;;;;;;;9.63;7.22;;;11.10;99.90;;;;;;2233658;64;20564;-73
2022/04/30 07:51:58;;;;;;;10.02;5.50;;;11.20;99.90;;;;;;2232247;64;20197;-75
2022/04/30 07:54:35;;;;;;;7.28;5.50;;;11.30;99.90;;;;;;2231013;64;20227;-74
2022/04/30 07:57:16;;;;;;;9.35;6.13;;;11.30;99.90;;;;;;2230975;64;20202;-74
2022/04/30 07:59:55;;;;;;;11.23;6.18;;;11.40;99.90;;;;;;2229972;64;20283;-72
2022/04/30 08:02:32;;;;;;;10.70;7.72;;;11.50;99.90;;;;;;2228516;64;20211;-74
2022/04/30 08:05:10;;;;;;;9.90;6.72;;;11.50;99.90;;;;;;2228369;64;20324;-73
2022/04/30 08:07:46;;;;;;;11.98;6.47;;;11.50;99.90;;;;;;2229417;64;20192;-73
2022/04/30 08:10:23;;;;;;;8.32;6.95;;;11.50;99.90;;;;;;2228768;64;20343;-73
2022/04/30 08:13:00;;;;;;;11.32;6.90;;;11.50;99.90;;;;;;2231673;64;20174;-73
2022/04/30 08:15:43;;;;;;;9.68;6.93;;;11.50;99.90;;;;;;2229317;64;20210;-73
2022/04/30 08:18:24;;;;;;;11.30;6.93;;;11.60;99.90;;;;;;2231642;64;20398;-73
2022/04/30 08:21:02;;;;;;;7.95;6.00;;;11.60;99.90;;;;;;2230572;64;20206;-73
2022/04/30 08:23:41;;;;;;;7.53;6.30;;;11.60;99.90;;;;;;2231097;64;20231;-73
2022/04/30 08:26:19;;;;;;;8.43;6.30;;;11.60;99.90;;;;;;2232602;64;20327;-73
2022/04/30 08:28:59;;;;;;;11.25;6.55;;;11.70;99.90;;;;;;2234326;64;20182;-73
2022/04/30 08:31:36;;;;;;;8.45;6.07;;;11.80;99.90;;;;;;2229964;64;20648;-72
2022/04/30 08:34:13;;;;;;;9.95;6.45;;;11.90;99.90;;;;;;2229314;64;20166;-74
2022/04/30 08:36:51;;;;;;;8.40;6.82;;;12.00;99.90;;;;;;2228657;64;20174;-74
2022/04/30 08:39:31;;;;;;;7.85;6.47;;;12.10;99.90;;;;;;2228289;64;20174;-73
2022/04/30 08:42:08;;;;;;;8.88;5.93;;;12.20;99.90;;;;;;2229315;64;20215;-73
2022/04/30 08:44:45;;;;;;;7.72;6.13;;;12.30;99.90;;;;;;2230839;64;20202;-73
2022/04/30 08:47:23;;;;;;;9.15;6.18;;;12.40;99.90;;;;;;2231304;64;20234;-73
2022/04/30 08:50:02;;;;;;;8.32;5.68;;;12.70;99.90;;;;;;2231246;64;20282;-74
2022/04/30 08:52:41;;;;;;;5.93;4.80;;;12.80;99.90;;;;;;2230918;64;20162;-72
2022/04/30 08:55:18;;;;;;;9.27;5.10;;;13.00;99.90;;;;;;2232561;64;20170;-73
2022/04/30 08:57:55;;;;;;;6.85;4.68;;;13.20;99.90;;;;;;2234186;64;20208;-73
2022/04/30 09:00:43;;;;;;;6.43;4.78;;;13.40;99.60;;;;;;2235534;64;20194;-72
2022/04/30 09:03:23;;;;;;;7.65;4.38;;;13.50;98.40;;;;;;2231184;64;20211;-74
2022/04/30 09:06:04;;;;;;;7.53;4.68;;;13.60;97.90;;;;;;2233718;64;20214;-73
2022/04/30 09:08:51;;;;;;;10.40;5.65;;;13.70;97.40;;;;;;2234404;64;20167;-74
2022/04/30 09:11:32;;;;;;;9.38;5.75;;;13.80;96.50;;;;;;2229256;64;20283;-72
2022/04/30 09:14:15;;;;;;;7.75;5.50;;;13.90;96.30;;;;;;2224364;64;20218;-72
2022/04/30 09:17:06;;;;;;;11.48;6.55;;;14.00;96.50;;;;;;2228428;64;20285;-73
2022/04/30 09:20:01;;;;;;;5.65;4.88;;;14.10;95.90;;;;;;2224919;64;20155;-73
2022/04/30 09:22:39;;;;;;;5.75;4.47;;;14.20;95.00;;;;;;2227021;64;20282;-73
2022/04/30 09:25:19;;;;;;;7.35;4.95;;;14.20;94.60;;;;;;2231998;64;20167;-73
2022/04/30 09:27:56;;;;;;;10.02;5.93;;;14.30;94.30;;;;;;2233478;64;20179;-73
2022/04/30 09:30:33;;;;;;;8.27;5.07;;;14.30;93.90;;;;;;2233482;64;20247;-73
2022/04/30 09:33:11;;;;;;;6.15;4.90;;;14.30;94.10;;;;;;2227704;64;20170;-72
2022/04/30 09:39:34;;;;;;;6.70;5.03;;;14.20;93.30;;;;;;2204028;65;20188;-72
2022/04/30 09:42:12;;;;;;;6.15;5.47;;;14.00;93.50;;;;;;2207313;65;20192;-73
2022/04/30 09:44:50;;;;;;;6.90;5.07;;;13.70;93.70;;;;;;2228487;64;20174;-73
2022/04/30 09:47:32;;;;;;;9.48;5.43;;;13.50;93.90;;;;;;2232678;64;20304;-72
2022/04/30 09:56:14;;;;;;;6.43;5.47;;;13.10;95.20;;;;;;2230616;64;20186;-73
2022/04/30 09:58:58;;;;;;;9.80;5.80;;;13.00;95.60;;;;;;2232116;64;20190;-72
2022/04/30 10:01:39;;;;;;;9.77;5.60;;;12.90;95.80;;;;;;2228908;64;20174;-74
2022/04/30 10:04:18;;;;;;;7.97;5.50;;;12.90;95.90;;;;;;2230572;64;20225;-74
2022/04/30 10:06:56;;;;;;;6.70;5.03;;;12.80;95.60;;;;;;2231400;64;20191;-74
2022/04/30 10:09:42;;;;;;;4.95;4.45;;;12.40;95.60;;;;;;2230589;64;20301;-72
2022/04/30 10:12:31;;;;;;;5.32;4.82;;;12.70;95.80;;;;;;2231975;64;20215;-73
2022/04/30 10:15:35;;;;;;;9.75;5.72;;;12.70;95.70;;;;;;2226027;64;69522;-75
2022/04/30 10:18:13;;;;;;;6.40;5.18;;;12.60;95.50;;;;;;2239992;64;20225;-72
2022/04/30 10:20:51;;;;;;;9.52;5.55;;;12.80;95.40;;;;;;2236844;64;20180;-73
2022/04/30 10:23:28;;;;;;;7.13;4.85;;;12.50;95.20;;;;;;2239190;64;20191;-72
2022/04/30 10:26:09;;;;;;;13.50;5.30;;;12.50;95.20;;;;;;2239538;64;20161;-73
2022/04/30 10:28:59;;;;;;;5.60;4.50;;;12.50;94.90;;;;;;2241190;64;20285;-71
2022/04/30 10:31:46;;;;;;;7.07;4.82;;;12.60;94.80;;;;;;2239011;64;20273;-73
2022/04/30 10:34:30;;;;;;;7.88;5.00;;;12.60;94.80;;;;;;2233730;64;20202;-73
2022/04/30 10:37:08;;;;;;;4.97;4.45;;;12.70;94.70;;;;;;2239630;64;20183;-73
2022/04/30 10:39:57;;;;;;;5.78;4.03;;;12.80;94.70;;;;;;2240005;64;20195;-73
2022/04/30 10:42:44;;;;;;;7.32;4.72;;;13.70;94.50;;;;;;2239688;64;20191;-72
2022/04/30 10:45:29;;;;;;;6.07;4.95;;;12.90;93.90;;;;;;2239441;64;20178;-73
2022/04/30 10:48:11;;;;;;;7.68;4.35;;;13.00;93.80;;;;;;2239059;64;20289;-72
2022/04/30 10:51:12;;;;;;;6.22;5.10;;;13.00;93.70;;;;;;2239891;64;20162;-73
2022/04/30 10:53:53;;;;;;;6.95;4.63;;;13.00;93.50;;;;;;2238384;64;20183;-73
2022/04/30 10:56:33;;;;;;;7.22;4.30;;;12.90;93.60;;;;;;2235664;64;20206;-75
2022/04/30 10:59:11;;;;;;;7.38;4.70;;;12.90;93.40;;;;;;2243958;64;20212;-72
2022/04/30 11:01:50;;;;;;;6.93;4.25;;;12.80;93.20;;;;;;2240817;64;20237;-72
2022/04/30 11:04:27;;;;;;;5.05;4.43;;;12.70;93.10;;;;;;2239858;64;20162;-72
2022/04/30 11:07:04;;;;;;;8.55;5.45;;;12.60;93.30;;;;;;2239635;64;20713;-71
2022/04/30 11:09:43;;;;;;;10.90;5.40;;;12.50;93.60;;;;;;2239628;64;20188;-71
2022/04/30 11:12:33;;;;;;;6.57;5.55;;;12.50;93.80;;;;;;2235241;64;20178;-72
2022/04/30 11:15:15;;;;;;;7.05;6.03;;;12.40;94.00;;;;;;2239678;64;20237;-71
2022/04/30 11:17:59;;;;;;;9.05;6.70;;;12.30;94.30;;;;;;2239557;64;20291;-71
2022/04/30 11:20:37;;;;;;;12.70;6.85;;;12.40;94.60;;;;;;2237880;64;20270;-71
2022/04/30 11:23:25;;;;;;;9.63;6.60;;;12.40;94.70;;;;;;2236482;64;20211;-71
2022/04/30 11:26:16;;;;;;;7.45;5.68;;;12.40;94.70;;;;;;2238562;64;20394;-71
2022/04/30 11:28:54;;;;;;;7.85;6.05;;;12.40;94.80;;;;;;2239021;64;20166;-71
2022/04/30 11:31:34;;;;;;;9.68;5.80;;;12.50;95.20;;;;;;2239543;64;20158;-71
2022/04/30 11:34:13;;;;;;;9.63;5.78;;;12.60;95.10;;;;;;2241601;64;20630;-71
2022/04/30 11:36:58;;;;;;;9.70;4.95;;;12.60;95.00;;;;;;2241632;64;20229;-71
2022/04/30 11:39:38;;;;;;;6.70;4.60;;;12.70;94.70;;;;;;2242329;64;20238;-73
2022/04/30 11:42:16;;;;;;;5.30;4.78;;;12.70;94.30;;;;;;2242354;64;20210;-72
2022/04/30 11:44:56;;;;;;;6.72;5.22;;;12.80;94.10;;;;;;2239409;64;20192;-72
2022/04/30 11:47:32;;;;;;;5.40;4.90;;;12.90;93.90;;;;;;2238719;64;20578;-72
2022/04/30 11:50:10;;;;;;;6.35;4.50;;;13.00;93.80;;;;;;2238932;64;20188;-71
2022/04/30 11:52:48;;;;;;;6.55;4.63;;;13.10;93.60;;;;;;2237289;64;20173;-72
2022/04/30 11:55:28;;;;;;;8.23;4.68;;;13.20;93.30;;;;;;2238514;64;20187;-72
2022/04/30 11:58:05;;;;;;;5.40;3.83;;;13.40;92.70;;;;;;2236262;64;20789;-71
2022/04/30 12:00:42;;;;;;;4.43;3.78;;;13.60;92.00;;;;;;2235080;64;20231;-72
2022/04/30 12:03:29;;;;;;;5.75;4.32;;;13.70;91.30;;;;;;2236602;64;20205;-72
2022/04/30 12:06:10;;;;;;;7.25;4.40;;;13.90;90.90;;;;;;2238127;63;20298;-72
2022/04/30 12:08:48;;;;;;;4.68;3.72;;;14.00;90.60;;;;;;2236464;64;20190;-72
2022/04/30 12:11:41;;;;;;;4.10;3.10;;;14.20;90.30;;;;;;2235561;64;20564;-72
2022/04/30 12:14:19;;;;;;;6.20;3.58;;;14.30;89.40;;;;;;2235666;64;20174;-70
2022/04/30 12:17:01;;;;;;;7.03;4.25;;;14.40;87.10;;;;;;2237696;64;20170;-73
2022/04/30 12:24:40;;;;;;;7.35;4.68;;;14.70;85.40;;;;;;2235795;63;20173;-73
2022/04/30 12:25:44;;;;;;;5.82;3.90;;;14.80;85.10;;;;;;2234774;63;20170;-73
2022/04/30 12:28:24;;;;;;;7.63;4.82;;;14.90;85.70;;;;;;2234901;64;20201;-72
2022/04/30 12:31:02;;;;;;;7.38;4.95;;;15.50;85.20;;;;;;2237846;63;20178;-72
2022/04/30 12:33:46;;;;;;;7.15;4.93;;;15.00;83.60;;;;;;2236991;64;20359;-73
2022/04/30 12:36:24;;;;;;;5.78;5.05;;;15.20;83.90;;;;;;2236780;64;20242;-71
2022/04/30 12:39:00;;;;;;;7.45;5.00;;;14.70;84.10;;;;;;2237761;63;20177;-72
2022/04/30 12:41:37;;;;;;;5.40;4.90;;;14.50;84.30;;;;;;2235419;63;20693;-72
2022/04/30 12:44:13;;;;;;;7.00;4.50;;;14.40;84.40;;;;;;2235315;63;20184;-73
2022/04/30 12:46:50;;;;;;;6.03;4.68;;;14.30;85.10;;;;;;2236022;63;20191;-73
2022/04/30 12:49:28;;;;;;;6.03;4.20;;;14.10;84.30;;;;;;2233477;64;20166;-72
2022/04/30 12:52:09;;;;;;;6.55;4.68;;;14.00;84.40;;;;;;2236153;63;20274;-72
2022/04/30 12:54:50;;;;;;;7.95;4.65;;;13.80;84.70;;;;;;2234942;63;20202;-72
2022/04/30 12:57:27;;;;;;;8.35;4.70;;;13.70;84.20;;;;;;2235403;63;20303;-72
2022/04/30 13:00:07;;;;;;;6.45;4.57;;;13.70;84.40;;;;;;2236671;64;20182;-73
2022/04/30 13:02:43;;;;;;;6.80;4.72;;;13.60;85.10;;;;;;2237420;64;20310;-72
2022/04/30 13:05:21;;;;;;;5.18;4.43;;;13.60;86.10;;;;;;2235580;64;20219;-72
2022/04/30 13:08:01;;;;;;;6.65;4.50;;;13.50;86.50;;;;;;2237792;64;20207;-72
2022/04/30 13:13:40;;;;;;;5.75;4.40;;;13.30;87.60;;;;;;2234399;64;20280;-72
2022/04/30 13:16:21;;;;;;;4.72;3.97;;;13.20;88.00;;;;;;2235604;64;20165;-72
2022/04/30 13:19:00;;;;;;;5.90;4.38;;;13.20;88.10;;;;;;2234626;64;20676;-72
2022/04/30 13:21:39;;;;;;;6.75;4.60;;;13.10;88.80;;;;;;2237332;63;20192;-72
2022/04/30 13:24:18;;;;;;;5.50;4.03;;;13.00;88.60;;;;;;2235693;64;20199;-72
2022/04/30 13:26:58;;;;;;;5.68;4.10;;;12.80;88.80;;;;;;2235795;64;20183;-72
2022/04/30 13:29:38;;;;;;;4.68;3.85;;;12.80;88.90;;;;;;2234941;64;20270;-72
2022/04/30 13:32:18;;;;;;;4.75;4.25;;;12.70;88.90;;;;;;2233736;63;20188;-71
2022/04/30 13:34:54;;;;;;;6.60;4.75;;;12.60;88.80;;;;;;2235011;64;20166;-72
2022/04/30 13:37:40;;;;;;;5.45;3.60;;;12.50;88.70;;;;;;2235411;63;20223;-72
2022/04/30 13:40:17;;;;;;;4.28;3.88;;;12.50;89.00;;;;;;2235020;63;20188;-71
2022/04/30 13:42:55;;;;;;;5.80;4.10;;;12.50;89.20;;;;;;2237515;63;20692;-71
2022/04/30 13:45:36;;;;;;;5.65;3.90;;;12.40;89.20;;;;;;2235041;63;20191;-71
2022/04/30 13:48:18;;;;;;;5.38;4.88;;;12.40;89.60;;;;;;2231990;63;20720;-71
2022/04/30 13:51:00;;;;;;;7.53;4.32;;;12.40;89.70;;;;;;2235642;63;20276;-72
2022/04/30 13:53:41;;;;;;;7.05;4.50;;;12.40;90.00;;;;;;2235387;63;20247;-72
2022/04/30 13:56:21;;;;;;;8.30;4.25;;;12.40;90.30;;;;;;2235121;64;20207;-71
2022/04/30 13:58:58;;;;;;;6.13;3.97;;;12.30;90.00;;;;;;2235873;64;20191;-72
2022/04/30 14:01:36;;;;;;;7.55;4.70;;;12.30;89.80;;;;;;2234202;64;20319;-72
2022/04/30 14:04:16;;;;;;;5.53;4.13;;;12.30;90.10;;;;;;2234568;64;20198;-71
2022/04/30 14:06:54;;;;;;;4.80;4.00;;;12.30;90.10;;;;;;2232174;63;20277;-72
2022/04/30 14:09:34;;;;;;;6.25;4.53;;;12.30;90.20;;;;;;2235812;63;20169;-71
2022/04/30 14:12:11;;;;;;;5.80;4.38;;;12.30;90.40;;;;;;2236066;63;20191;-71
2022/04/30 14:14:57;;;;;;;6.15;4.15;;;12.70;90.70;;;;;;2237959;63;20177;-72
2022/04/30 14:20:29;;;;;;;8.02;5.32;;;12.30;90.90;;;;;;2237866;64;20711;-72
2022/04/30 14:23:06;;;;;;;6.10;4.95;;;12.20;91.10;;;;;;2235722;63;20252;-71
2022/04/30 14:25:45;;;;;;;6.78;4.32;;;12.20;91.10;;;;;;2235331;64;20202;-71
2022/04/30 14:28:24;;;;;;;5.80;4.78;;;12.20;91.10;;;;;;2236941;64;20733;-72
2022/04/30 14:31:04;;;;;;;8.10;5.15;;;12.30;91.20;;;;;;2235597;64;21210;-73
2022/04/30 14:33:44;;;;;;;6.03;5.07;;;12.20;91.30;;;;;;2235663;63;20214;-73
2022/04/30 14:36:21;;;;;;;7.10;5.32;;;12.20;91.50;;;;;;2237418;63;20282;-72
2022/04/30 14:39:00;;;;;;;5.85;4.43;;;12.20;91.70;;;;;;2234539;64;20684;-71
2022/04/30 14:41:41;;;;;;;5.30;4.53;;;12.20;91.80;;;;;;2237963;63;20582;-72